Time;durP1;ratioP1;P1;durP2;ratioP2;P2;SDS_P1;SDS_P2;PMS_P1;PMS_P2;Temp;Humidity;BMP_temperature;BMP_pressure;BME280_temperature;BME280_humidity;BME280_pressure;Samples;Min_cycle;Max_cycle;Signal;HPM_P1;HPM_P2
2021/05/24 00:00:24;;;;;;;1.67;1.02;;;6.90;99.90;;;;;;5032743;28;20113;-78
2021/05/24 00:02:51;;;;;;;1.85;1.00;;;6.90;99.90;;;;;;5030607;28;20029;-77
2021/05/24 00:05:20;;;;;;;2.47;1.10;;;7.00;99.90;;;;;;5032050;28;20038;-77
2021/05/24 00:07:46;;;;;;;3.25;1.10;;;6.90;99.90;;;;;;5032179;28;20048;-78
2021/05/24 00:10:18;;;;;;;1.40;1.30;;;6.90;99.90;;;;;;5030000;28;20044;-79
2021/05/24 00:12:48;;;;;;;3.13;1.20;;;6.90;99.90;;;;;;5031514;28;20037;-77
2021/05/24 00:15:20;;;;;;;2.20;1.20;;;6.80;99.90;;;;;;5029365;28;20096;-78
2021/05/24 00:17:47;;;;;;;1.75;1.60;;;6.80;99.90;;;;;;5031529;28;20033;-77
2021/05/24 00:20:13;;;;;;;1.30;1.02;;;6.70;99.90;;;;;;5029824;28;20067;-77
2021/05/24 00:22:39;;;;;;;2.40;1.55;;;6.80;99.90;;;;;;5029852;28;20037;-78
2021/05/24 00:25:06;;;;;;;1.30;1.20;;;6.80;99.90;;;;;;5031192;28;20022;-78
2021/05/24 00:27:32;;;;;;;1.15;1.13;;;6.70;99.90;;;;;;5027680;28;20108;-78
2021/05/24 00:29:58;;;;;;;1.90;1.33;;;6.80;99.90;;;;;;5031517;28;20025;-78
2021/05/24 00:32:24;;;;;;;2.05;1.02;;;6.70;99.90;;;;;;5030022;28;20022;-78
2021/05/24 00:34:50;;;;;;;1.35;1.20;;;6.70;99.90;;;;;;5031154;28;20076;-78
2021/05/24 00:37:16;;;;;;;1.10;1.00;;;6.70;99.90;;;;;;5030671;28;20029;-78
2021/05/24 00:39:42;;;;;;;2.67;1.10;;;6.70;99.90;;;;;;5031106;28;20087;-78
2021/05/24 00:42:09;;;;;;;2.13;1.08;;;6.70;99.90;;;;;;5027510;28;20033;-78
2021/05/24 00:44:34;;;;;;;1.25;1.05;;;6.70;99.90;;;;;;5029719;28;20140;-78
2021/05/24 00:47:00;;;;;;;2.30;1.40;;;6.70;99.90;;;;;;5030754;28;20124;-78
2021/05/24 00:49:28;;;;;;;1.15;1.00;;;6.70;99.90;;;;;;5031098;28;20197;-78
2021/05/24 00:51:55;;;;;;;1.98;1.20;;;6.70;99.90;;;;;;5027620;28;20029;-78
2021/05/24 00:54:22;;;;;;;1.20;1.10;;;6.60;99.90;;;;;;5031143;28;20845;-78
2021/05/24 00:56:48;;;;;;;1.45;1.25;;;6.70;99.90;;;;;;5029232;28;20436;-78
2021/05/24 00:59:14;;;;;;;1.58;1.40;;;6.70;99.90;;;;;;5028988;28;20033;-78
2021/05/24 01:01:39;;;;;;;1.48;1.15;;;6.60;99.90;;;;;;5029060;28;20606;-78
2021/05/24 01:04:05;;;;;;;1.10;1.00;;;6.60;99.90;;;;;;5030476;28;20116;-78
2021/05/24 01:06:31;;;;;;;1.02;0.93;;;6.60;99.90;;;;;;5030681;28;20406;-78
2021/05/24 01:08:56;;;;;;;1.75;1.33;;;6.60;99.90;;;;;;5031122;28;20486;-78
2021/05/24 01:11:22;;;;;;;1.40;1.30;;;6.60;99.90;;;;;;5030802;28;20072;-78
2021/05/24 01:13:49;;;;;;;2.45;1.13;;;6.50;99.90;;;;;;5028002;28;20026;-78
2021/05/24 01:16:15;;;;;;;2.35;1.40;;;6.50;99.90;;;;;;5029609;28;20596;-77
2021/05/24 01:18:41;;;;;;;2.05;1.27;;;6.40;99.90;;;;;;5030490;28;20117;-77
2021/05/24 01:21:12;;;;;;;1.48;1.05;;;6.40;99.90;;;;;;5030546;28;20477;-77
2021/05/24 01:23:40;;;;;;;1.92;1.20;;;6.30;99.90;;;;;;5029521;28;20595;-77
2021/05/24 01:26:06;;;;;;;1.67;1.25;;;6.20;99.90;;;;;;5027674;28;20111;-77
2021/05/24 01:28:32;;;;;;;1.15;1.08;;;6.20;99.90;;;;;;5030725;28;20033;-77
2021/05/24 01:30:58;;;;;;;1.35;1.10;;;6.20;99.90;;;;;;5030104;28;20409;-76
2021/05/24 01:33:23;;;;;;;3.28;1.20;;;6.20;99.90;;;;;;5030154;28;20018;-77
2021/05/24 01:35:49;;;;;;;1.10;1.00;;;6.20;99.90;;;;;;5030055;28;20024;-77
2021/05/24 01:38:15;;;;;;;1.30;1.20;;;6.20;99.90;;;;;;5029387;28;20033;-77
2021/05/24 01:40:44;;;;;;;2.17;1.63;;;6.20;99.90;;;;;;5030502;28;20060;-77
2021/05/24 01:43:10;;;;;;;1.10;1.00;;;6.20;99.90;;;;;;5029567;28;20047;-77
2021/05/24 01:45:37;;;;;;;1.55;1.25;;;6.20;99.90;;;;;;5028343;28;20029;-77
2021/05/24 01:48:04;;;;;;;2.85;1.17;;;6.20;99.90;;;;;;5009705;28;20038;-77
2021/05/24 01:50:30;;;;;;;1.77;0.93;;;6.20;99.90;;;;;;5029998;28;20024;-77
2021/05/24 01:52:55;;;;;;;1.27;1.08;;;6.30;99.90;;;;;;5029868;28;20460;-78
2021/05/24 01:55:25;;;;;;;2.15;1.20;;;6.30;99.90;;;;;;5027460;28;20021;-78
2021/05/24 01:57:53;;;;;;;1.00;0.90;;;6.30;99.90;;;;;;5029799;28;20090;-78
2021/05/24 02:00:21;;;;;;;2.28;1.10;;;6.30;99.90;;;;;;5030081;28;21362;-77
2021/05/24 02:02:48;;;;;;;2.45;0.95;;;6.30;99.90;;;;;;5027607;28;20390;-78
2021/05/24 02:05:15;;;;;;;1.20;1.00;;;6.30;99.90;;;;;;5029377;28;20409;-76
2021/05/24 02:07:42;;;;;;;1.20;1.10;;;6.30;99.90;;;;;;5030155;28;20037;-78
2021/05/24 02:10:10;;;;;;;1.40;0.95;;;6.30;99.90;;;;;;5029851;28;20021;-77
2021/05/24 02:12:35;;;;;;;2.92;1.17;;;6.20;99.90;;;;;;5027748;28;20038;-78
2021/05/24 02:15:04;;;;;;;1.38;1.10;;;6.20;99.90;;;;;;5027792;28;20021;-77
2021/05/24 02:17:29;;;;;;;1.20;0.90;;;6.10;99.90;;;;;;5029702;28;20040;-78
2021/05/24 02:19:55;;;;;;;3.17;1.15;;;6.10;99.90;;;;;;5028691;28;20033;-77
2021/05/24 02:22:21;;;;;;;2.60;1.05;;;6.00;99.90;;;;;;5027918;28;20034;-78
2021/05/24 02:24:46;;;;;;;2.72;1.30;;;6.10;99.90;;;;;;5029343;28;20036;-78
2021/05/24 02:27:12;;;;;;;1.17;0.98;;;6.10;99.90;;;;;;5029225;28;20036;-77
2021/05/24 02:29:38;;;;;;;1.63;0.95;;;6.10;99.90;;;;;;5029308;28;20104;-78
2021/05/24 02:32:04;;;;;;;2.75;1.13;;;6.00;99.90;;;;;;5029422;28;20094;-77
2021/05/24 02:34:30;;;;;;;1.10;0.85;;;6.00;99.90;;;;;;5028891;28;20034;-78
2021/05/24 02:36:57;;;;;;;0.90;0.90;;;6.00;99.90;;;;;;5029517;28;20482;-78
2021/05/24 02:39:23;;;;;;;0.90;0.88;;;6.10;99.90;;;;;;5011754;28;20033;-78
2021/05/24 02:41:48;;;;;;;1.30;1.20;;;6.00;99.90;;;;;;5029578;28;20505;-78
2021/05/24 02:44:14;;;;;;;1.30;1.20;;;6.00;99.90;;;;;;5028770;28;20493;-78
2021/05/24 02:46:40;;;;;;;1.80;1.30;;;6.00;99.90;;;;;;5028358;28;20041;-78
2021/05/24 02:49:06;;;;;;;1.20;1.10;;;6.00;99.90;;;;;;5028138;28;20034;-78
2021/05/24 02:51:33;;;;;;;2.45;1.40;;;6.00;99.90;;;;;;5028061;28;20029;-78
2021/05/24 02:53:59;;;;;;;1.45;1.10;;;6.00;99.90;;;;;;5028987;28;20072;-77
2021/05/24 02:56:25;;;;;;;1.23;1.10;;;6.00;99.90;;;;;;5026016;28;20025;-78
2021/05/24 02:58:50;;;;;;;1.50;1.23;;;6.00;99.90;;;;;;5029435;28;20124;-78
2021/05/24 03:01:16;;;;;;;2.05;1.10;;;6.10;99.90;;;;;;5029390;28;20025;-78
2021/05/24 03:03:42;;;;;;;1.25;1.15;;;6.20;99.90;;;;;;5029018;28;20056;-78
2021/05/24 03:06:08;;;;;;;1.73;1.27;;;6.20;99.90;;;;;;5008829;28;20034;-78
2021/05/24 03:08:34;;;;;;;1.60;1.40;;;6.20;99.90;;;;;;5027715;28;20116;-78
2021/05/24 03:11:00;;;;;;;1.50;1.30;;;6.20;99.90;;;;;;5029370;28;20120;-77
2021/05/24 03:13:27;;;;;;;1.35;1.23;;;6.20;99.90;;;;;;5027166;28;20071;-78
2021/05/24 03:15:53;;;;;;;1.58;1.15;;;6.30;99.90;;;;;;5028615;28;20114;-78
2021/05/24 03:18:20;;;;;;;1.35;0.98;;;6.30;99.90;;;;;;5029315;28;20032;-78
2021/05/24 03:20:46;;;;;;;2.10;0.80;;;6.30;99.90;;;;;;5026060;28;20037;-78
2021/05/24 03:23:13;;;;;;;1.42;1.13;;;6.30;99.90;;;;;;5025492;28;20045;-78
2021/05/24 03:25:38;;;;;;;1.27;1.17;;;6.30;99.90;;;;;;5024882;28;20042;-78
2021/05/24 03:28:04;;;;;;;0.95;0.95;;;6.20;99.90;;;;;;5028707;28;20041;-78
2021/05/24 03:30:30;;;;;;;1.25;0.88;;;6.30;99.90;;;;;;5029114;28;20025;-78
2021/05/24 03:32:56;;;;;;;1.27;1.15;;;6.30;99.90;;;;;;5028839;28;20441;-78
2021/05/24 03:35:22;;;;;;;3.08;0.98;;;6.20;99.90;;;;;;5026889;28;20407;-78
2021/05/24 03:37:47;;;;;;;0.93;0.85;;;6.20;99.90;;;;;;5029057;28;20033;-78
2021/05/24 03:40:15;;;;;;;1.63;1.20;;;6.20;99.90;;;;;;5029570;28;20022;-76
2021/05/24 03:42:41;;;;;;;3.00;1.40;;;6.30;99.90;;;;;;5026882;28;20033;-77
2021/05/24 03:45:10;;;;;;;1.25;1.15;;;6.30;99.90;;;;;;5028142;28;20075;-77
2021/05/24 03:47:36;;;;;;;1.20;1.10;;;6.40;99.90;;;;;;5028924;28;20044;-76
2021/05/24 03:50:04;;;;;;;3.30;1.30;;;6.40;99.90;;;;;;5027306;28;20040;-77
2021/05/24 03:52:29;;;;;;;2.13;1.17;;;6.50;99.90;;;;;;5027613;28;20025;-76
2021/05/24 03:54:55;;;;;;;1.30;1.20;;;6.60;99.90;;;;;;5031958;28;20117;-77
2021/05/24 03:57:21;;;;;;;1.15;0.93;;;6.70;99.90;;;;;;5032273;28;20021;-78
2021/05/24 03:59:47;;;;;;;1.65;1.23;;;6.70;99.90;;;;;;5032303;28;20029;-77
2021/05/24 04:02:13;;;;;;;2.38;1.02;;;6.80;99.90;;;;;;5030496;28;20363;-78
2021/05/24 04:04:39;;;;;;;1.10;1.00;;;6.80;99.90;;;;;;5031395;28;20504;-78
2021/05/24 04:07:06;;;;;;;1.65;1.30;;;6.80;99.90;;;;;;5030793;28;20393;-78
2021/05/24 04:09:33;;;;;;;1.08;0.98;;;6.90;99.90;;;;;;5032136;28;20428;-77
2021/05/24 04:11:58;;;;;;;1.17;1.10;;;6.90;99.90;;;;;;5032124;28;20409;-77
2021/05/24 04:14:24;;;;;;;1.65;1.45;;;6.90;99.90;;;;;;5031743;28;20036;-77
2021/05/24 04:16:50;;;;;;;1.02;0.98;;;6.90;99.90;;;;;;5030428;28;20030;-78
2021/05/24 04:19:15;;;;;;;3.22;1.13;;;7.10;99.90;;;;;;5030714;28;20048;-77
2021/05/24 04:21:45;;;;;;;3.42;1.27;;;7.10;99.90;;;;;;5030864;28;20038;-78
2021/05/24 04:24:12;;;;;;;1.15;1.00;;;7.10;99.90;;;;;;5031492;28;20159;-77
2021/05/24 04:26:38;;;;;;;1.05;0.95;;;7.20;99.90;;;;;;5031402;28;20056;-78
2021/05/24 04:29:04;;;;;;;1.48;1.00;;;7.20;99.90;;;;;;5030752;28;20029;-78
2021/05/24 04:31:31;;;;;;;2.17;1.00;;;7.20;99.90;;;;;;5030709;28;20090;-78
2021/05/24 04:33:57;;;;;;;1.38;0.63;;;7.30;99.90;;;;;;5030669;28;20065;-78
2021/05/24 04:36:23;;;;;;;1.15;0.90;;;7.30;99.90;;;;;;5029963;28;20517;-78
2021/05/24 04:38:48;;;;;;;0.63;0.63;;;7.40;99.90;;;;;;5030642;28;20029;-78
2021/05/24 04:41:14;;;;;;;1.52;1.17;;;7.40;99.90;;;;;;5031932;28;20397;-77
2021/05/24 04:43:41;;;;;;;1.98;0.82;;;7.50;99.90;;;;;;5029670;28;20120;-78
2021/05/24 04:46:07;;;;;;;1.00;0.80;;;7.50;99.90;;;;;;5028595;28;20041;-77
2021/05/24 04:48:34;;;;;;;1.67;0.70;;;7.50;99.90;;;;;;5030172;28;20041;-78
2021/05/24 04:51:01;;;;;;;1.52;1.42;;;7.60;99.90;;;;;;5031674;28;20025;-78
2021/05/24 04:53:27;;;;;;;1.80;1.70;;;7.60;99.90;;;;;;5027501;28;20033;-78
2021/05/24 04:55:52;;;;;;;1.73;1.30;;;7.60;99.90;;;;;;5030890;28;20486;-78
2021/05/24 04:58:19;;;;;;;3.58;2.83;;;7.70;99.90;;;;;;5031225;28;20033;-78
2021/05/24 05:00:46;;;;;;;2.60;1.35;;;7.70;99.90;;;;;;5031418;28;20030;-78
2021/05/24 05:03:11;;;;;;;9.15;4.68;;;7.80;99.90;;;;;;5030527;28;20029;-78
2021/05/24 05:05:37;;;;;;;4.60;2.75;;;7.80;99.90;;;;;;5029468;28;20037;-78
2021/05/24 05:08:03;;;;;;;2.80;2.13;;;7.90;99.90;;;;;;5029376;28;20132;-77
2021/05/24 05:10:29;;;;;;;6.35;4.93;;;7.80;99.90;;;;;;5030887;28;20569;-77
2021/05/24 05:12:55;;;;;;;3.22;2.90;;;7.90;99.90;;;;;;5029057;28;20108;-76
2021/05/24 05:15:20;;;;;;;2.35;1.20;;;7.90;99.90;;;;;;5031431;28;20034;-76
2021/05/24 05:17:46;;;;;;;2.67;1.42;;;8.00;99.90;;;;;;5031031;28;20440;-76
2021/05/24 05:20:13;;;;;;;6.70;3.17;;;8.10;99.90;;;;;;5014769;28;20035;-77
2021/05/24 05:22:38;;;;;;;3.63;2.78;;;8.20;99.90;;;;;;5032019;28;20063;-77
2021/05/24 05:25:05;;;;;;;2.22;1.65;;;8.30;99.90;;;;;;5031759;28;20093;-76
2021/05/24 05:27:31;;;;;;;1.67;1.40;;;8.30;99.90;;;;;;5031698;28;20602;-77
2021/05/24 05:29:57;;;;;;;0.80;0.80;;;8.40;99.90;;;;;;5031327;28;20112;-76
2021/05/24 05:32:23;;;;;;;1.08;0.98;;;8.50;99.90;;;;;;5031643;28;20464;-77
2021/05/24 05:34:48;;;;;;;5.93;1.70;;;8.60;99.90;;;;;;5031367;28;20025;-77
2021/05/24 05:37:15;;;;;;;1.50;1.00;;;8.70;99.90;;;;;;5032234;28;20021;-76
2021/05/24 05:39:40;;;;;;;2.60;1.73;;;8.90;99.90;;;;;;5032331;28;20037;-76
2021/05/24 05:42:06;;;;;;;12.68;6.53;;;9.00;99.90;;;;;;5033943;28;20489;-77
2021/05/24 05:44:32;;;;;;;6.10;3.63;;;9.10;99.90;;;;;;5014902;28;20079;-76
2021/05/24 05:46:57;;;;;;;1.88;1.67;;;9.20;99.90;;;;;;5057252;28;20807;-76
2021/05/24 05:49:23;;;;;;;4.53;2.50;;;9.30;99.90;;;;;;5031863;28;20060;-76
2021/05/24 05:51:49;;;;;;;4.20;1.80;;;9.40;99.90;;;;;;5032212;28;20056;-76
2021/05/24 05:54:14;;;;;;;1.55;1.45;;;9.40;99.90;;;;;;5031088;28;20021;-77
2021/05/24 05:56:40;;;;;;;0.73;0.70;;;9.50;99.90;;;;;;5031045;28;20645;-77
2021/05/24 05:59:06;;;;;;;0.80;0.70;;;9.50;99.90;;;;;;5030294;28;20048;-76
2021/05/24 06:01:33;;;;;;;1.52;1.00;;;9.60;99.90;;;;;;5031452;28;20037;-76
2021/05/24 06:03:58;;;;;;;3.42;0.80;;;9.50;99.90;;;;;;4997256;28;20633;-77
2021/05/24 06:06:24;;;;;;;0.98;0.68;;;9.60;99.90;;;;;;5030317;28;20060;-77
2021/05/24 06:08:50;;;;;;;0.60;0.60;;;9.50;99.90;;;;;;5031688;28;20033;-77
2021/05/24 06:11:16;;;;;;;0.80;0.80;;;9.50;99.90;;;;;;5031952;28;20030;-77
2021/05/24 06:13:41;;;;;;;1.27;0.70;;;9.70;99.90;;;;;;5029666;28;20048;-77
2021/05/24 06:16:07;;;;;;;0.80;0.63;;;9.80;99.90;;;;;;4997016;28;20552;-77
2021/05/24 06:18:33;;;;;;;1.13;0.50;;;9.90;99.90;;;;;;5012878;28;20037;-77
2021/05/24 06:20:59;;;;;;;0.75;0.75;;;9.90;99.90;;;;;;5029589;28;20025;-76
2021/05/24 06:23:25;;;;;;;1.45;0.70;;;9.90;99.90;;;;;;5030561;28;20441;-77
2021/05/24 06:25:50;;;;;;;1.15;0.70;;;9.80;99.90;;;;;;5013342;28;20116;-77
2021/05/24 06:28:16;;;;;;;1.38;0.80;;;9.90;99.90;;;;;;5029526;28;20029;-77
2021/05/24 06:30:42;;;;;;;0.65;0.65;;;9.90;99.90;;;;;;5029239;28;20037;-78
2021/05/24 06:33:08;;;;;;;0.73;0.70;;;10.00;99.90;;;;;;5012499;28;20109;-77
2021/05/24 06:35:34;;;;;;;0.85;0.82;;;10.10;99.90;;;;;;5012902;28;20060;-77
2021/05/24 06:38:00;;;;;;;0.88;0.82;;;10.20;99.90;;;;;;5030666;28;20029;-77
2021/05/24 06:40:26;;;;;;;0.50;0.50;;;10.30;99.90;;;;;;5029146;28;20052;-77
2021/05/24 06:42:52;;;;;;;3.53;0.60;;;10.40;99.90;;;;;;5029703;28;20033;-78
2021/05/24 06:45:19;;;;;;;0.45;0.40;;;10.50;99.90;;;;;;5029438;28;20481;-77
2021/05/24 06:47:46;;;;;;;2.40;0.80;;;10.50;99.90;;;;;;5030485;28;20060;-77
2021/05/24 06:50:14;;;;;;;1.98;1.30;;;10.50;99.90;;;;;;5011315;28;20033;-78
2021/05/24 06:52:40;;;;;;;0.60;0.60;;;10.60;99.90;;;;;;5012984;28;20437;-77
2021/05/24 06:55:06;;;;;;;4.75;0.77;;;10.60;99.90;;;;;;5012839;28;20028;-76
2021/05/24 06:57:32;;;;;;;0.55;0.50;;;10.70;99.90;;;;;;5028942;28;20109;-77
2021/05/24 06:59:58;;;;;;;1.02;0.50;;;10.80;99.90;;;;;;4995924;28;20132;-77
2021/05/24 07:02:23;;;;;;;1.08;0.60;;;10.80;99.90;;;;;;5027391;28;20076;-77
2021/05/24 07:04:50;;;;;;;0.80;0.45;;;10.90;99.90;;;;;;5027818;28;20092;-77
2021/05/24 07:07:16;;;;;;;0.50;0.40;;;10.90;99.90;;;;;;5028205;28;20533;-77
2021/05/24 07:09:41;;;;;;;0.35;0.35;;;10.90;99.90;;;;;;5028305;28;20056;-77
2021/05/24 07:12:08;;;;;;;0.60;0.45;;;11.10;99.90;;;;;;5028392;28;20026;-77
2021/05/24 07:14:34;;;;;;;0.52;0.45;;;11.10;99.90;;;;;;5029272;28;20033;-77
2021/05/24 07:17:01;;;;;;;1.40;0.50;;;11.20;99.90;;;;;;5025472;28;20018;-77
2021/05/24 07:19:27;;;;;;;0.75;0.60;;;11.30;99.90;;;;;;5026115;28;20128;-78
2021/05/24 07:21:56;;;;;;;0.52;0.52;;;11.40;99.90;;;;;;5028302;28;20763;-77
2021/05/24 07:24:22;;;;;;;0.60;0.50;;;11.40;99.90;;;;;;5024823;28;20045;-77
2021/05/24 07:26:49;;;;;;;2.25;1.02;;;11.50;99.90;;;;;;5027823;28;20039;-77
2021/05/24 07:29:16;;;;;;;0.40;0.40;;;11.60;99.90;;;;;;5030220;28;20038;-77
2021/05/24 07:31:42;;;;;;;0.60;0.30;;;11.50;99.90;;;;;;5033264;28;20036;-77
2021/05/24 07:34:07;;;;;;;0.32;0.30;;;11.70;99.90;;;;;;5032207;28;20021;-77
2021/05/24 07:36:33;;;;;;;0.43;0.40;;;11.80;99.90;;;;;;5007128;28;20032;-77
2021/05/24 07:38:59;;;;;;;2.78;0.50;;;11.70;99.90;;;;;;5033210;28;20037;-77
2021/05/24 07:41:24;;;;;;;1.00;0.40;;;11.80;99.90;;;;;;5031336;28;20030;-77
2021/05/24 07:43:50;;;;;;;0.60;0.40;;;11.80;99.90;;;;;;5030759;28;20035;-77
2021/05/24 07:46:16;;;;;;;4.53;0.50;;;11.90;99.90;;;;;;5026458;28;20087;-77
2021/05/24 07:48:43;;;;;;;1.55;0.47;;;12.00;99.90;;;;;;5011815;28;20037;-77
2021/05/24 07:51:11;;;;;;;2.55;0.32;;;12.10;99.90;;;;;;5032016;28;20604;-77
2021/05/24 07:53:37;;;;;;;1.40;0.35;;;12.10;99.90;;;;;;5030419;28;20040;-78
2021/05/24 07:56:02;;;;;;;1.45;0.32;;;12.20;99.90;;;;;;5029386;28;20056;-77
2021/05/24 07:58:30;;;;;;;1.58;0.98;;;12.30;99.90;;;;;;5027990;28;20124;-77
2021/05/24 08:00:56;;;;;;;0.28;0.28;;;12.30;99.90;;;;;;5030116;28;20477;-77
2021/05/24 08:03:21;;;;;;;0.43;0.38;;;12.50;99.90;;;;;;5028416;28;20045;-77
2021/05/24 08:05:47;;;;;;;0.75;0.40;;;12.60;99.90;;;;;;5011664;28;20033;-77
2021/05/24 08:08:13;;;;;;;1.75;0.45;;;12.80;99.90;;;;;;5029339;28;20441;-77
2021/05/24 08:10:39;;;;;;;0.28;0.28;;;13.10;99.90;;;;;;5029596;28;20112;-77
2021/05/24 08:13:04;;;;;;;0.45;0.30;;;13.30;99.90;;;;;;5030167;28;20102;-78
2021/05/24 08:15:31;;;;;;;1.13;0.30;;;13.40;99.90;;;;;;5031052;28;20116;-77
2021/05/24 08:17:59;;;;;;;1.45;0.20;;;13.60;99.90;;;;;;5013822;28;20091;-77
2021/05/24 08:20:25;;;;;;;0.30;0.20;;;13.80;99.90;;;;;;5030542;28;20158;-77
2021/05/24 08:22:51;;;;;;;0.88;0.47;;;14.10;99.90;;;;;;5031018;28;20068;-77
2021/05/24 08:25:18;;;;;;;0.52;0.35;;;14.30;99.90;;;;;;4996342;28;20076;-77
2021/05/24 08:27:44;;;;;;;0.45;0.43;;;14.50;99.90;;;;;;5029318;28;20018;-77
2021/05/24 08:30:11;;;;;;;0.30;0.30;;;14.50;99.90;;;;;;5030642;28;20116;-77
2021/05/24 08:32:36;;;;;;;0.80;0.35;;;14.80;99.90;;;;;;5031058;28;20652;-78
2021/05/24 08:35:04;;;;;;;0.20;0.20;;;14.90;99.90;;;;;;5029649;28;20068;-77
2021/05/24 08:37:30;;;;;;;0.68;0.30;;;15.20;99.90;;;;;;5029233;28;20033;-77
2021/05/24 08:39:55;;;;;;;0.70;0.40;;;15.40;99.90;;;;;;5027696;28;20603;-77
2021/05/24 08:42:23;;;;;;;0.40;0.40;;;15.60;99.90;;;;;;5028650;28;20048;-77
2021/05/24 08:44:49;;;;;;;1.13;0.40;;;15.60;99.90;;;;;;5023822;28;20090;-76
2021/05/24 08:47:15;;;;;;;0.93;0.20;;;15.90;99.90;;;;;;5028101;28;20030;-77
2021/05/24 08:49:41;;;;;;;0.45;0.13;;;15.70;97.00;;;;;;5026426;28;20033;-78
2021/05/24 08:52:07;;;;;;;0.95;0.30;;;15.90;97.10;;;;;;5026389;28;20038;-78
2021/05/24 08:54:36;;;;;;;0.85;0.20;;;16.00;99.90;;;;;;5009794;28;20040;-77
2021/05/24 08:57:03;;;;;;;0.82;0.20;;;16.00;96.40;;;;;;5026880;28;20043;-76
2021/05/24 08:59:29;;;;;;;18.00;1.10;;;15.90;94.90;;;;;;5025885;28;20044;-77
2021/05/24 09:01:55;;;;;;;0.20;0.10;;;15.80;96.10;;;;;;5010911;28;20154;-77
2021/05/24 09:04:37;;;;;;;5.25;0.30;;;15.70;94.10;;;;;;5025844;28;20219;-76
2021/05/24 09:07:03;;;;;;;0.22;0.22;;;15.80;94.30;;;;;;5010198;28;21073;-77
2021/05/24 09:09:28;;;;;;;0.20;0.20;;;15.80;93.80;;;;;;4992466;28;20048;-78
2021/05/24 09:11:54;;;;;;;0.20;0.15;;;16.00;94.40;;;;;;5026248;28;20030;-77
2021/05/24 09:14:26;;;;;;;0.25;0.20;;;16.20;92.30;;;;;;5028524;28;20040;-78
2021/05/24 09:17:00;;;;;;;0.10;0.10;;;16.20;91.20;;;;;;5010696;28;20378;-78
2021/05/24 09:19:29;;;;;;;0.25;0.15;;;16.20;94.00;;;;;;5028007;28;20080;-77
2021/05/24 09:22:04;;;;;;;1.95;0.30;;;16.40;92.80;;;;;;5027596;28;20048;-77
2021/05/24 09:24:32;;;;;;;0.20;0.10;;;16.40;91.90;;;;;;5026619;28;20049;-77
2021/05/24 09:27:01;;;;;;;0.30;0.30;;;16.30;90.00;;;;;;4993495;28;20044;-77
2021/05/24 09:29:41;;;;;;;1.52;0.20;;;16.30;93.00;;;;;;5027197;28;20041;-78
2021/05/24 09:32:15;;;;;;;0.20;0.20;;;16.40;93.60;;;;;;5027715;28;20033;-78
2021/05/24 09:34:42;;;;;;;0.10;0.10;;;16.30;88.70;;;;;;5025462;28;20035;-78
2021/05/24 09:37:08;;;;;;;11.80;0.95;;;16.40;88.40;;;;;;5009891;28;20048;-77
2021/05/24 09:39:36;;;;;;;0.68;0.30;;;16.60;94.40;;;;;;5007322;28;20034;-78
2021/05/24 09:42:14;;;;;;;0.20;0.17;;;16.80;92.60;;;;;;5024868;28;20044;-78
2021/05/24 09:44:47;;;;;;;1.55;0.45;;;16.70;86.90;;;;;;5026065;28;20516;-78
2021/05/24 09:47:14;;;;;;;0.30;0.20;;;16.60;82.80;;;;;;5027154;28;20033;-78
2021/05/24 09:49:40;;;;;;;0.85;0.20;;;16.60;86.20;;;;;;5025715;28;20068;-79
2021/05/24 09:52:06;;;;;;;0.43;0.10;;;16.80;92.00;;;;;;5028669;28;20060;-78
2021/05/24 09:54:36;;;;;;;0.52;0.17;;;16.60;89.80;;;;;;5028924;28;20029;-78
2021/05/24 09:57:08;;;;;;;0.38;0.10;;;16.70;90.00;;;;;;5028749;28;20116;-79
2021/05/24 09:59:35;;;;;;;0.30;0.20;;;16.90;90.90;;;;;;5028216;28;20037;-79
2021/05/24 10:02:04;;;;;;;0.22;0.20;;;17.00;87.40;;;;;;5027242;28;20038;-78
2021/05/24 10:04:33;;;;;;;1.13;0.20;;;16.70;86.50;;;;;;5026493;28;20034;-78
2021/05/24 10:07:03;;;;;;;0.43;0.20;;;16.70;86.60;;;;;;5020808;28;20061;-77
2021/05/24 10:09:34;;;;;;;2.95;0.32;;;16.70;88.40;;;;;;5025863;28;20042;-78
2021/05/24 10:12:03;;;;;;;0.22;0.20;;;16.80;88.90;;;;;;5025391;28;20029;-78
2021/05/24 10:14:29;;;;;;;0.30;0.20;;;16.70;87.60;;;;;;5024006;28;20037;-77
2021/05/24 10:17:01;;;;;;;0.20;0.20;;;16.70;82.70;;;;;;5022325;28;20874;-77
2021/05/24 10:19:27;;;;;;;0.90;0.20;;;17.00;90.10;;;;;;5022263;28;20041;-77
2021/05/24 10:21:53;;;;;;;0.38;0.20;;;17.00;84.90;;;;;;5023738;28;20493;-77
2021/05/24 10:24:21;;;;;;;0.25;0.22;;;16.90;84.00;;;;;;5020101;28;20091;-77
2021/05/24 10:26:48;;;;;;;0.55;0.25;;;17.00;88.00;;;;;;5024939;28;20098;-77
2021/05/24 10:29:16;;;;;;;0.57;0.20;;;17.00;89.10;;;;;;5028083;28;20112;-78
2021/05/24 10:31:42;;;;;;;0.10;0.10;;;17.20;84.20;;;;;;5025545;28;20045;-78
2021/05/24 10:34:12;;;;;;;1.00;0.30;;;17.20;83.70;;;;;;5026785;28;20037;-77
2021/05/24 10:36:38;;;;;;;1.55;0.28;;;17.40;82.70;;;;;;5025924;28;20104;-77
2021/05/24 10:39:20;;;;;;;0.35;0.20;;;17.40;81.70;;;;;;5022732;28;20041;-77
2021/05/24 10:41:55;;;;;;;0.20;0.20;;;17.40;79.30;;;;;;5024055;28;20133;-77
2021/05/24 10:44:35;;;;;;;1.33;0.40;;;17.60;82.70;;;;;;5024267;28;20174;-77
2021/05/24 10:47:22;;;;;;;0.20;0.20;;;17.80;80.50;;;;;;5022643;28;20103;-77
2021/05/24 10:50:04;;;;;;;0.85;0.38;;;17.70;76.20;;;;;;5022225;28;20064;-77
2021/05/24 10:52:33;;;;;;;0.10;0.10;;;17.60;76.80;;;;;;5022292;28;20030;-77
2021/05/24 10:55:00;;;;;;;0.20;0.05;;;17.70;75.80;;;;;;5022191;28;20032;-77
2021/05/24 10:57:30;;;;;;;0.55;0.20;;;17.80;78.40;;;;;;5023350;28;20053;-77
2021/05/24 10:59:57;;;;;;;7.32;0.63;;;17.80;75.60;;;;;;5024558;28;20389;-78
2021/05/24 11:02:23;;;;;;;0.45;0.22;;;17.90;79.40;;;;;;5023013;28;20068;-77
2021/05/24 11:04:58;;;;;;;0.80;0.35;;;18.10;79.40;;;;;;5028324;28;20061;-77
2021/05/24 11:07:44;;;;;;;1.90;1.08;;;18.20;74.00;;;;;;5026343;28;20076;-79
2021/05/24 11:10:12;;;;;;;0.38;0.30;;;18.30;75.40;;;;;;5032102;28;20025;-78
2021/05/24 11:12:39;;;;;;;1.98;0.20;;;18.30;68.80;;;;;;5030215;28;20123;-80
2021/05/24 11:15:09;;;;;;;0.80;0.30;;;18.10;78.30;;;;;;5032267;28;20032;-76
2021/05/24 11:18:00;;;;;;;0.17;0.17;;;18.20;77.00;;;;;;5035304;28;20030;-78
2021/05/24 11:20:48;;;;;;;1.83;0.30;;;18.30;74.10;;;;;;5028308;28;20029;-77
2021/05/24 11:23:36;;;;;;;1.00;0.30;;;18.00;67.50;;;;;;5032208;28;20045;-78
2021/05/24 11:26:21;;;;;;;2.28;0.20;;;18.10;69.20;;;;;;5032838;28;20090;-78
2021/05/24 11:28:59;;;;;;;0.30;0.10;;;18.20;73.50;;;;;;5032063;28;20541;-78
2021/05/24 11:31:32;;;;;;;0.68;0.10;;;18.20;68.70;;;;;;5033303;28;20018;-77
2021/05/24 11:33:59;;;;;;;1.88;0.20;;;18.50;76.00;;;;;;5028617;28;20045;-77
2021/05/24 11:36:39;;;;;;;0.32;0.20;;;18.60;68.30;;;;;;5029782;28;20049;-77
2021/05/24 11:39:06;;;;;;;1.00;0.20;;;18.70;69.90;;;;;;5030288;28;20645;-78
2021/05/24 11:41:33;;;;;;;0.10;0.10;;;18.60;62.80;;;;;;5032597;28;20025;-78
2021/05/24 11:44:02;;;;;;;2.70;0.28;;;18.60;64.60;;;;;;5030433;28;20048;-79
2021/05/24 11:46:53;;;;;;;1.50;0.20;;;18.50;65.50;;;;;;5022828;28;20564;-78
2021/05/24 11:49:29;;;;;;;1.13;0.13;;;18.40;66.40;;;;;;5020129;28;20041;-78
2021/05/24 11:51:55;;;;;;;0.10;0.10;;;18.50;61.40;;;;;;5005339;28;20025;-77
2021/05/24 11:54:22;;;;;;;1.85;0.57;;;18.60;63.30;;;;;;5012018;28;20030;-77
2021/05/24 11:56:51;;;;;;;27.30;1.83;;;18.70;67.30;;;;;;5026630;28;20061;-77
2021/05/24 11:59:20;;;;;;;3.25;0.20;;;18.80;67.70;;;;;;5026031;28;20045;-78
2021/05/24 12:01:48;;;;;;;1.70;0.10;;;19.00;69.80;;;;;;5026129;28;20076;-77
2021/05/24 12:04:16;;;;;;;1.40;0.20;;;19.00;60.70;;;;;;5026100;28;20068;-77
2021/05/24 12:06:46;;;;;;;0.20;0.15;;;19.00;67.40;;;;;;5025014;28;20130;-77
2021/05/24 12:09:15;;;;;;;0.20;0.10;;;18.90;60.90;;;;;;5029195;28;20026;-78
2021/05/24 12:11:55;;;;;;;2.47;0.20;;;18.90;62.90;;;;;;5009062;28;20095;-77
2021/05/24 12:14:21;;;;;;;0.38;0.20;;;18.90;62.70;;;;;;5027553;28;20029;-77
2021/05/24 12:16:48;;;;;;;2.17;0.20;;;18.80;60.40;;;;;;5025929;28;20355;-77
2021/05/24 12:19:19;;;;;;;0.75;0.20;;;18.90;63.20;;;;;;5027592;28;20027;-77
2021/05/24 12:21:45;;;;;;;0.40;0.10;;;18.90;58.90;;;;;;5028948;28;20658;-76
2021/05/24 12:24:11;;;;;;;0.55;0.10;;;18.80;64.10;;;;;;5008789;28;20041;-76
2021/05/24 12:26:44;;;;;;;0.65;0.17;;;18.90;66.80;;;;;;5009852;28;20026;-78
2021/05/24 12:29:10;;;;;;;0.20;0.10;;;18.90;57.70;;;;;;5026690;28;20530;-77
2021/05/24 12:31:43;;;;;;;0.10;0.10;;;18.60;57.70;;;;;;5009897;28;20022;-77
2021/05/24 12:34:09;;;;;;;0.20;0.20;;;18.50;57.80;;;;;;5028115;28;20029;-78
2021/05/24 12:36:43;;;;;;;7.43;0.52;;;18.40;59.30;;;;;;5009701;28;20030;-78
2021/05/24 12:39:18;;;;;;;0.40;0.15;;;18.40;59.00;;;;;;5032176;28;20100;-78
2021/05/24 12:41:46;;;;;;;0.80;0.20;;;18.20;56.80;;;;;;5030337;28;20127;-78
2021/05/24 12:44:12;;;;;;;3.53;0.35;;;18.10;58.50;;;;;;5009705;28;20413;-78
2021/05/24 12:46:42;;;;;;;0.60;0.20;;;18.20;62.60;;;;;;5028954;28;20112;-78
2021/05/24 12:49:08;;;;;;;0.43;0.13;;;18.20;58.00;;;;;;5043878;28;20029;-78
2021/05/24 12:51:35;;;;;;;0.10;0.10;;;18.30;60.30;;;;;;5029817;28;20418;-77
2021/05/24 12:54:06;;;;;;;0.10;0.10;;;18.40;61.40;;;;;;5008632;28;20667;-78